Enumclaw, WA

8:07 PM PST on February 05, 2016 (GMT -0800)
MesoWest | | Change Station
CLOSE
Current Station
Personal Weather Station
Location: Naches, WA
Elevation: 6830 ft
Nearby Weather Stations

Elev 6830 ft 46.94 °N, 121.50 °W | Updated 1 hour ago

Overcast
Overcast
28.0 °F
Feels Like 9 °F
N
50.0
Wind Variable Wind from SW
Gusts 84.0 mph

Today
High -- | Low -- °F
--% Chance of Precip.
Yesterday
High -- | Low -- °F
Precip. -- in
Pressure 30.15 in
Visibility 5.0 miles
Clouds Scattered Clouds 4700 ft
Overcast 5500 ft
Windchill 9 °F
Dew Point 28.0 °F
Humidity 99%
Rainfall in
Snow Depth Not available.
7:25 AM 5:14 PM
Waning Crescent, 8% visible
METAR KELN 060353Z AUTO 26006KT 5SM BR SCT047 OVC055 01/M01 A3010 RMK AO2 SLP208 T00111011
Pressure 30.15 in
Visibility 5.0 miles
Clouds Scattered Clouds 4700 ft
Overcast 5500 ft
Windchill 9 °F
Dew Point 28.0 °F
Humidity 99%
Rainfall in
Snow Depth Not available.
7:25 AM 5:14 PM
Waning Crescent, 8% visible
METAR KELN 060353Z AUTO 26006KT 5SM BR SCT047 OVC055 01/M01 A3010 RMK AO2 SLP208 T00111011

10-Day Weather Forecast

Almanac

Astronomy

Feb. 05, 2016 Rise Set
Actual Time
Civil Twilight
Nautical Twilight
Astronomical Twilight
Moon
Length of Visible Light
Length of Day
Tomorrow will be .
, % of the Moon is Illuminated

Today's Extremes

State Highs State Lows

Community

WunderPhotos

Upload Photos

1,890,916 photos uploaded!

WunderBlog® & News

Nearby

Air Quality

  Air Quality AQ Index Pollutant
Not available.

Snow Depth

Station Depth Elevation

Earthquake Activity

City Distance Mag. Time & Date
Minimum magnitude displayed is 2.5.

Coastal Water Temperatures

Place Temperature

Stations

Nearby Weather Stations

Station Location Temp. Windchill Dew Point Humidity Wind Precip. Elev Updated Type
                   

Watches & Warnings

There are currently no watches in effect.